sensor_id;sensor_type;location;lat;lon;timestamp;temperature;humidity
20366;DHT22;10341;49.894;8.822;2024-03-02T00:04:44;2.90;99.90
20366;DHT22;10341;49.894;8.822;2024-03-02T00:10:14;3.00;99.90
20366;DHT22;10341;49.894;8.822;2024-03-02T00:15:51;2.90;99.90
20366;DHT22;10341;49.894;8.822;2024-03-02T00:21:10;2.90;99.90
20366;DHT22;10341;49.894;8.822;2024-03-02T00:26:30;2.80;99.90
20366;DHT22;10341;49.894;8.822;2024-03-02T00:31:49;2.80;99.90
20366;DHT22;10341;49.894;8.822;2024-03-02T00:37:08;2.90;99.90
20366;DHT22;10341;49.894;8.822;2024-03-02T00:42:28;3.00;99.90
20366;DHT22;10341;49.894;8.822;2024-03-02T00:47:47;2.90;99.90
20366;DHT22;10341;49.894;8.822;2024-03-02T00:53:09;2.70;99.90
20366;DHT22;10341;49.894;8.822;2024-03-02T00:58:30;2.70;99.90
20366;DHT22;10341;49.894;8.822;2024-03-02T01:03:49;2.70;99.90
20366;DHT22;10341;49.894;8.822;2024-03-02T01:09:09;2.60;99.90
20366;DHT22;10341;49.894;8.822;2024-03-02T01:14:28;2.50;99.90
20366;DHT22;10341;49.894;8.822;2024-03-02T01:19:47;2.50;99.90
20366;DHT22;10341;49.894;8.822;2024-03-02T01:25:08;2.40;99.90
20366;DHT22;10341;49.894;8.822;2024-03-02T01:30:27;2.20;99.90
20366;DHT22;10341;49.894;8.822;2024-03-02T01:35:46;2.20;99.90
20366;DHT22;10341;49.894;8.822;2024-03-02T01:41:07;2.10;99.90
20366;DHT22;10341;49.894;8.822;2024-03-02T01:46:26;2.10;99.90
20366;DHT22;10341;49.894;8.822;2024-03-02T01:51:46;2.10;99.90
20366;DHT22;10341;49.894;8.822;2024-03-02T01:57:05;2.00;99.90
20366;DHT22;10341;49.894;8.822;2024-03-02T02:02:24;2.00;99.90
20366;DHT22;10341;49.894;8.822;2024-03-02T02:07:44;2.10;99.90
20366;DHT22;10341;49.894;8.822;2024-03-02T02:13:03;2.10;99.90
20366;DHT22;10341;49.894;8.822;2024-03-02T02:18:22;2.10;99.90
20366;DHT22;10341;49.894;8.822;2024-03-02T02:23:42;2.10;99.90
20366;DHT22;10341;49.894;8.822;2024-03-02T02:29:05;1.90;99.90
20366;DHT22;10341;49.894;8.822;2024-03-02T02:34:25;1.80;99.90
20366;DHT22;10341;49.894;8.822;2024-03-02T02:39:44;1.60;99.90
20366;DHT22;10341;49.894;8.822;2024-03-02T02:45:06;1.60;99.90
20366;DHT22;10341;49.894;8.822;2024-03-02T02:50:26;1.40;99.90
20366;DHT22;10341;49.894;8.822;2024-03-02T02:55:45;1.40;99.90
20366;DHT22;10341;49.894;8.822;2024-03-02T03:01:05;1.40;99.90
20366;DHT22;10341;49.894;8.822;2024-03-02T03:06:24;1.20;99.90
20366;DHT22;10341;49.894;8.822;2024-03-02T03:11:43;1.20;99.90
20366;DHT22;10341;49.894;8.822;2024-03-02T03:17:03;1.20;99.90
20366;DHT22;10341;49.894;8.822;2024-03-02T03:22:22;1.10;99.90
20366;DHT22;10341;49.894;8.822;2024-03-02T03:27:41;1.10;99.90
20366;DHT22;10341;49.894;8.822;2024-03-02T03:33:01;1.00;99.90
20366;DHT22;10341;49.894;8.822;2024-03-02T03:38:20;1.00;99.90
20366;DHT22;10341;49.894;8.822;2024-03-02T03:43:39;1.00;99.90
20366;DHT22;10341;49.894;8.822;2024-03-02T03:48:58;1.00;99.90
20366;DHT22;10341;49.894;8.822;2024-03-02T03:54:17;1.10;99.90
20366;DHT22;10341;49.894;8.822;2024-03-02T03:59:37;1.10;99.90
20366;DHT22;10341;49.894;8.822;2024-03-02T04:04:57;1.10;99.90
20366;DHT22;10341;49.894;8.822;2024-03-02T04:10:16;0.90;99.90
20366;DHT22;10341;49.894;8.822;2024-03-02T04:15:36;1.00;99.90
20366;DHT22;10341;49.894;8.822;2024-03-02T04:20:55;0.90;99.90
20366;DHT22;10341;49.894;8.822;2024-03-02T04:26:14;1.00;99.90
20366;DHT22;10341;49.894;8.822;2024-03-02T04:31:39;1.20;99.90
20366;DHT22;10341;49.894;8.822;2024-03-02T04:36:57;1.10;99.90
20366;DHT22;10341;49.894;8.822;2024-03-02T04:42:17;1.00;99.90
20366;DHT22;10341;49.894;8.822;2024-03-02T04:47:36;0.90;99.90
20366;DHT22;10341;49.894;8.822;2024-03-02T04:52:55;0.80;99.90
20366;DHT22;10341;49.894;8.822;2024-03-02T04:58:14;0.90;99.90
20366;DHT22;10341;49.894;8.822;2024-03-02T05:03:34;0.80;99.90
20366;DHT22;10341;49.894;8.822;2024-03-02T05:08:53;0.80;99.90
20366;DHT22;10341;49.894;8.822;2024-03-02T05:14:12;0.70;99.90
20366;DHT22;10341;49.894;8.822;2024-03-02T05:19:32;0.70;99.90
20366;DHT22;10341;49.894;8.822;2024-03-02T05:24:52;0.70;99.90
20366;DHT22;10341;49.894;8.822;2024-03-02T05:30:11;0.80;99.90
20366;DHT22;10341;49.894;8.822;2024-03-02T05:35:30;0.80;99.90
20366;DHT22;10341;49.894;8.822;2024-03-02T05:40:50;0.90;99.90
20366;DHT22;10341;49.894;8.822;2024-03-02T05:46:09;0.90;99.90
20366;DHT22;10341;49.894;8.822;2024-03-02T05:51:28;0.90;99.90
20366;DHT22;10341;49.894;8.822;2024-03-02T05:56:47;0.90;99.90
20366;DHT22;10341;49.894;8.822;2024-03-02T06:02:07;0.90;99.90
20366;DHT22;10341;49.894;8.822;2024-03-02T06:07:26;0.90;99.90
20366;DHT22;10341;49.894;8.822;2024-03-02T06:12:45;0.90;99.90
20366;DHT22;10341;49.894;8.822;2024-03-02T06:18:05;0.90;99.90
20366;DHT22;10341;49.894;8.822;2024-03-02T06:23:25;1.00;99.90
20366;DHT22;10341;49.894;8.822;2024-03-02T06:28:45;1.00;99.90
20366;DHT22;10341;49.894;8.822;2024-03-02T06:34:05;1.00;99.90
20366;DHT22;10341;49.894;8.822;2024-03-02T06:39:24;1.10;99.90
20366;DHT22;10341;49.894;8.822;2024-03-02T06:44:44;1.10;99.90
20366;DHT22;10341;49.894;8.822;2024-03-02T06:50:04;1.20;99.90
20366;DHT22;10341;49.894;8.822;2024-03-02T06:55:23;1.30;99.90
20366;DHT22;10341;49.894;8.822;2024-03-02T07:00:43;1.40;99.90
20366;DHT22;10341;49.894;8.822;2024-03-02T07:06:07;1.50;99.90
20366;DHT22;10341;49.894;8.822;2024-03-02T07:11:26;1.60;99.90
20366;DHT22;10341;49.894;8.822;2024-03-02T07:16:45;1.80;99.90
20366;DHT22;10341;49.894;8.822;2024-03-02T07:22:08;1.90;99.90
20366;DHT22;10341;49.894;8.822;2024-03-02T07:27:27;2.10;99.90
20366;DHT22;10341;49.894;8.822;2024-03-02T07:32:50;2.20;99.90
20366;DHT22;10341;49.894;8.822;2024-03-02T07:38:09;2.20;99.90
20366;DHT22;10341;49.894;8.822;2024-03-02T07:43:28;2.30;99.90
20366;DHT22;10341;49.894;8.822;2024-03-02T07:48:47;2.40;99.90
20366;DHT22;10341;49.894;8.822;2024-03-02T07:54:07;2.60;99.90
20366;DHT22;10341;49.894;8.822;2024-03-02T07:59:27;2.90;99.90
20366;DHT22;10341;49.894;8.822;2024-03-02T08:04:46;3.30;99.90
20366;DHT22;10341;49.894;8.822;2024-03-02T08:10:06;3.70;99.90
20366;DHT22;10341;49.894;8.822;2024-03-02T08:15:26;3.80;99.90
20366;DHT22;10341;49.894;8.822;2024-03-02T08:20:46;4.50;99.90
20366;DHT22;10341;49.894;8.822;2024-03-02T08:26:05;5.80;99.90
20366;DHT22;10341;49.894;8.822;2024-03-02T08:31:24;7.70;99.90
20366;DHT22;10341;49.894;8.822;2024-03-02T08:36:43;9.60;99.90
20366;DHT22;10341;49.894;8.822;2024-03-02T08:42:03;11.90;99.90
20366;DHT22;10341;49.894;8.822;2024-03-02T08:47:23;11.60;99.90
20366;DHT22;10341;49.894;8.822;2024-03-02T08:52:43;11.40;99.90
20366;DHT22;10341;49.894;8.822;2024-03-02T08:58:02;11.50;99.90
20366;DHT22;10341;49.894;8.822;2024-03-02T09:03:22;11.60;99.90
20366;DHT22;10341;49.894;8.822;2024-03-02T09:08:41;11.90;99.90
20366;DHT22;10341;49.894;8.822;2024-03-02T09:14:01;12.10;99.90
20366;DHT22;10341;49.894;8.822;2024-03-02T09:19:20;12.20;99.90
20366;DHT22;10341;49.894;8.822;2024-03-02T09:24:39;12.90;99.90
20366;DHT22;10341;49.894;8.822;2024-03-02T09:29:58;14.00;99.90
20366;DHT22;10341;49.894;8.822;2024-03-02T09:35:18;16.50;99.90
20366;DHT22;10341;49.894;8.822;2024-03-02T09:40:37;18.60;99.90
20366;DHT22;10341;49.894;8.822;2024-03-02T09:45:57;19.70;99.90
20366;DHT22;10341;49.894;8.822;2024-03-02T09:51:16;19.70;98.00
20366;DHT22;10341;49.894;8.822;2024-03-02T09:56:39;19.00;97.40
20366;DHT22;10341;49.894;8.822;2024-03-02T10:01:59;18.10;99.90
20366;DHT22;10341;49.894;8.822;2024-03-02T10:07:19;17.60;99.90
20366;DHT22;10341;49.894;8.822;2024-03-02T10:12:38;17.60;99.90
20366;DHT22;10341;49.894;8.822;2024-03-02T10:17:58;17.70;99.90
20366;DHT22;10341;49.894;8.822;2024-03-02T10:23:18;17.90;99.90
20366;DHT22;10341;49.894;8.822;2024-03-02T10:28:46;20.80;96.60
20366;DHT22;10341;49.894;8.822;2024-03-02T10:34:07;23.50;88.40
20366;DHT22;10341;49.894;8.822;2024-03-02T10:39:28;24.50;84.80
20366;DHT22;10341;49.894;8.822;2024-03-02T10:44:48;26.10;80.90
20366;DHT22;10341;49.894;8.822;2024-03-02T10:50:09;28.30;70.20
20366;DHT22;10341;49.894;8.822;2024-03-02T10:55:29;28.50;67.10
20366;DHT22;10341;49.894;8.822;2024-03-02T11:00:48;28.60;65.90
20366;DHT22;10341;49.894;8.822;2024-03-02T11:06:09;28.40;65.30
20366;DHT22;10341;49.894;8.822;2024-03-02T11:11:31;28.70;61.20
20366;DHT22;10341;49.894;8.822;2024-03-02T11:16:53;27.20;61.40
20366;DHT22;10341;49.894;8.822;2024-03-02T11:22:14;28.80;59.60
20366;DHT22;10341;49.894;8.822;2024-03-02T11:27:59;27.00;60.10
20366;DHT22;10341;49.894;8.822;2024-03-02T11:33:23;26.50;59.20
20366;DHT22;10341;49.894;8.822;2024-03-02T11:38:44;25.60;57.40
20366;DHT22;10341;49.894;8.822;2024-03-02T11:44:05;25.40;59.30
20366;DHT22;10341;49.894;8.822;2024-03-02T11:49:38;26.10;59.00
20366;DHT22;10341;49.894;8.822;2024-03-02T11:54:58;27.20;55.10
20366;DHT22;10341;49.894;8.822;2024-03-02T12:00:18;25.40;58.60
20366;DHT22;10341;49.894;8.822;2024-03-02T12:05:37;26.00;58.80
20366;DHT22;10341;49.894;8.822;2024-03-02T12:10:57;25.10;58.00
20366;DHT22;10341;49.894;8.822;2024-03-02T12:16:26;25.60;59.00
20366;DHT22;10341;49.894;8.822;2024-03-02T12:21:46;26.30;60.10
20366;DHT22;10341;49.894;8.822;2024-03-02T12:27:06;25.00;61.60
20366;DHT22;10341;49.894;8.822;2024-03-02T12:32:26;26.50;61.10
20366;DHT22;10341;49.894;8.822;2024-03-02T12:37:48;26.80;60.60
20366;DHT22;10341;49.894;8.822;2024-03-02T12:43:08;26.60;61.00
20366;DHT22;10341;49.894;8.822;2024-03-02T12:48:28;25.90;61.40
20366;DHT22;10341;49.894;8.822;2024-03-02T12:53:54;25.80;61.60
20366;DHT22;10341;49.894;8.822;2024-03-02T12:59:24;25.20;61.40
20366;DHT22;10341;49.894;8.822;2024-03-02T13:04:52;24.80;62.10
20366;DHT22;10341;49.894;8.822;2024-03-02T13:10:13;24.30;64.20
20366;DHT22;10341;49.894;8.822;2024-03-02T13:15:35;24.50;64.10
20366;DHT22;10341;49.894;8.822;2024-03-02T13:20:55;23.80;65.70
20366;DHT22;10341;49.894;8.822;2024-03-02T13:26:15;24.60;66.00
20366;DHT22;10341;49.894;8.822;2024-03-02T13:31:35;22.40;67.50
20366;DHT22;10341;49.894;8.822;2024-03-02T13:36:54;21.70;71.40
20366;DHT22;10341;49.894;8.822;2024-03-02T13:42:14;23.50;68.30
20366;DHT22;10341;49.894;8.822;2024-03-02T13:47:34;22.40;68.10
20366;DHT22;10341;49.894;8.822;2024-03-02T13:52:53;20.60;72.40
20366;DHT22;10341;49.894;8.822;2024-03-02T13:58:13;21.00;74.00
20366;DHT22;10341;49.894;8.822;2024-03-02T14:03:33;21.80;71.60
20366;DHT22;10341;49.894;8.822;2024-03-02T14:08:53;21.60;71.40
20366;DHT22;10341;49.894;8.822;2024-03-02T14:14:12;21.60;70.60
20366;DHT22;10341;49.894;8.822;2024-03-02T14:19:32;20.80;71.20
20366;DHT22;10341;49.894;8.822;2024-03-02T14:24:51;19.70;72.80
20366;DHT22;10341;49.894;8.822;2024-03-02T14:30:11;19.30;75.50
20366;DHT22;10341;49.894;8.822;2024-03-02T14:35:31;18.50;76.30
20366;DHT22;10341;49.894;8.822;2024-03-02T14:40:51;17.70;77.60
20366;DHT22;10341;49.894;8.822;2024-03-02T14:46:11;17.70;79.40
20366;DHT22;10341;49.894;8.822;2024-03-02T14:51:30;17.30;79.80
20366;DHT22;10341;49.894;8.822;2024-03-02T14:56:49;16.60;85.00
20366;DHT22;10341;49.894;8.822;2024-03-02T15:02:09;16.30;86.50
20366;DHT22;10341;49.894;8.822;2024-03-02T15:07:29;16.00;88.20
20366;DHT22;10341;49.894;8.822;2024-03-02T15:12:48;15.80;89.20
20366;DHT22;10341;49.894;8.822;2024-03-02T15:18:08;15.50;90.30
20366;DHT22;10341;49.894;8.822;2024-03-02T15:23:28;15.40;90.20
20366;DHT22;10341;49.894;8.822;2024-03-02T15:28:49;15.40;90.90
20366;DHT22;10341;49.894;8.822;2024-03-02T15:34:08;15.60;90.70
20366;DHT22;10341;49.894;8.822;2024-03-02T15:39:28;15.80;91.40
20366;DHT22;10341;49.894;8.822;2024-03-02T15:44:47;15.80;91.90
20366;DHT22;10341;49.894;8.822;2024-03-02T15:50:07;15.90;91.30
20366;DHT22;10341;49.894;8.822;2024-03-02T15:55:27;15.90;91.70
20366;DHT22;10341;49.894;8.822;2024-03-02T16:00:46;15.90;91.80
20366;DHT22;10341;49.894;8.822;2024-03-02T16:06:06;15.70;93.10
20366;DHT22;10341;49.894;8.822;2024-03-02T16:11:26;15.30;95.10
20366;DHT22;10341;49.894;8.822;2024-03-02T16:16:45;15.10;96.60
20366;DHT22;10341;49.894;8.822;2024-03-02T16:22:05;14.90;97.60
20366;DHT22;10341;49.894;8.822;2024-03-02T16:27:25;14.70;98.80
20366;DHT22;10341;49.894;8.822;2024-03-02T16:32:47;14.40;99.70
20366;DHT22;10341;49.894;8.822;2024-03-02T16:38:07;14.30;99.90
20366;DHT22;10341;49.894;8.822;2024-03-02T16:43:26;14.10;99.90
20366;DHT22;10341;49.894;8.822;2024-03-02T16:48:46;13.90;99.90
20366;DHT22;10341;49.894;8.822;2024-03-02T16:54:05;13.70;99.90
20366;DHT22;10341;49.894;8.822;2024-03-02T16:59:24;13.50;99.90
20366;DHT22;10341;49.894;8.822;2024-03-02T17:04:43;13.30;99.90
20366;DHT22;10341;49.894;8.822;2024-03-02T17:10:03;13.00;99.90
20366;DHT22;10341;49.894;8.822;2024-03-02T17:15:23;12.70;99.90
20366;DHT22;10341;49.894;8.822;2024-03-02T17:20:42;12.40;99.90
20366;DHT22;10341;49.894;8.822;2024-03-02T17:26:02;12.30;99.90
20366;DHT22;10341;49.894;8.822;2024-03-02T17:31:21;12.10;99.90
20366;DHT22;10341;49.894;8.822;2024-03-02T17:36:41;11.90;99.90
20366;DHT22;10341;49.894;8.822;2024-03-02T17:42:01;11.80;99.90
20366;DHT22;10341;49.894;8.822;2024-03-02T17:47:20;11.90;99.90
20366;DHT22;10341;49.894;8.822;2024-03-02T17:52:39;12.10;99.90
20366;DHT22;10341;49.894;8.822;2024-03-02T17:57:59;12.10;99.90
20366;DHT22;10341;49.894;8.822;2024-03-02T18:03:18;12.20;99.90
20366;DHT22;10341;49.894;8.822;2024-03-02T18:08:37;12.30;99.90
20366;DHT22;10341;49.894;8.822;2024-03-02T18:13:56;12.20;99.90
20366;DHT22;10341;49.894;8.822;2024-03-02T18:19:15;12.10;99.90
20366;DHT22;10341;49.894;8.822;2024-03-02T18:24:34;11.90;99.90
20366;DHT22;10341;49.894;8.822;2024-03-02T18:29:54;11.70;99.90
20366;DHT22;10341;49.894;8.822;2024-03-02T18:35:13;11.60;99.90
20366;DHT22;10341;49.894;8.822;2024-03-02T18:40:33;11.60;99.90
20366;DHT22;10341;49.894;8.822;2024-03-02T18:45:52;11.80;99.90
20366;DHT22;10341;49.894;8.822;2024-03-02T18:51:14;11.80;99.90
20366;DHT22;10341;49.894;8.822;2024-03-02T18:56:34;12.00;99.90
20366;DHT22;10341;49.894;8.822;2024-03-02T19:01:53;12.10;99.90
20366;DHT22;10341;49.894;8.822;2024-03-02T19:07:12;12.20;99.90
20366;DHT22;10341;49.894;8.822;2024-03-02T19:12:32;12.30;99.90
20366;DHT22;10341;49.894;8.822;2024-03-02T19:17:51;12.40;99.90
20366;DHT22;10341;49.894;8.822;2024-03-02T19:23:11;12.40;99.90
20366;DHT22;10341;49.894;8.822;2024-03-02T19:28:30;12.30;99.90
20366;DHT22;10341;49.894;8.822;2024-03-02T19:33:50;12.20;99.90
20366;DHT22;10341;49.894;8.822;2024-03-02T19:39:10;12.20;99.90
20366;DHT22;10341;49.894;8.822;2024-03-02T19:44:30;12.10;99.90
20366;DHT22;10341;49.894;8.822;2024-03-02T19:49:52;12.10;99.90
20366;DHT22;10341;49.894;8.822;2024-03-02T19:55:11;11.90;99.90
20366;DHT22;10341;49.894;8.822;2024-03-02T20:00:32;11.80;99.90
20366;DHT22;10341;49.894;8.822;2024-03-02T20:05:51;11.80;99.90
20366;DHT22;10341;49.894;8.822;2024-03-02T20:11:10;11.60;99.90
20366;DHT22;10341;49.894;8.822;2024-03-02T20:16:29;11.60;99.90
20366;DHT22;10341;49.894;8.822;2024-03-02T20:21:49;11.30;99.90
20366;DHT22;10341;49.894;8.822;2024-03-02T20:27:08;11.10;99.90
20366;DHT22;10341;49.894;8.822;2024-03-02T20:32:28;10.90;99.90
20366;DHT22;10341;49.894;8.822;2024-03-02T20:37:47;10.70;99.90
20366;DHT22;10341;49.894;8.822;2024-03-02T20:43:06;10.60;99.90
20366;DHT22;10341;49.894;8.822;2024-03-02T20:48:26;10.60;99.90
20366;DHT22;10341;49.894;8.822;2024-03-02T20:53:47;10.50;99.90
20366;DHT22;10341;49.894;8.822;2024-03-02T20:59:07;10.50;99.90
20366;DHT22;10341;49.894;8.822;2024-03-02T21:04:27;10.40;99.90
20366;DHT22;10341;49.894;8.822;2024-03-02T21:09:46;10.30;99.90
20366;DHT22;10341;49.894;8.822;2024-03-02T21:15:06;10.10;99.90
20366;DHT22;10341;49.894;8.822;2024-03-02T21:20:25;9.90;99.90
20366;DHT22;10341;49.894;8.822;2024-03-02T21:25:45;9.90;99.90
20366;DHT22;10341;49.894;8.822;2024-03-02T21:31:04;9.80;99.90
20366;DHT22;10341;49.894;8.822;2024-03-02T21:36:23;9.70;99.90
20366;DHT22;10341;49.894;8.822;2024-03-02T21:41:42;9.70;99.90
20366;DHT22;10341;49.894;8.822;2024-03-02T21:47:01;9.60;99.90
20366;DHT22;10341;49.894;8.822;2024-03-02T21:52:21;9.40;99.90
20366;DHT22;10341;49.894;8.822;2024-03-02T21:57:40;9.20;99.90
20366;DHT22;10341;49.894;8.822;2024-03-02T22:03:00;9.10;99.90
20366;DHT22;10341;49.894;8.822;2024-03-02T22:08:20;9.00;99.90
20366;DHT22;10341;49.894;8.822;2024-03-02T22:13:39;8.80;99.90
20366;DHT22;10341;49.894;8.822;2024-03-02T22:18:59;8.70;99.90
20366;DHT22;10341;49.894;8.822;2024-03-02T22:24:18;8.70;99.90
20366;DHT22;10341;49.894;8.822;2024-03-02T22:29:38;8.60;99.90
20366;DHT22;10341;49.894;8.822;2024-03-02T22:34:59;8.70;99.90
20366;DHT22;10341;49.894;8.822;2024-03-02T22:40:19;8.60;99.90
20366;DHT22;10341;49.894;8.822;2024-03-02T22:45:38;8.60;99.90
20366;DHT22;10341;49.894;8.822;2024-03-02T22:50:58;8.60;99.90
20366;DHT22;10341;49.894;8.822;2024-03-02T22:56:18;8.60;99.90
20366;DHT22;10341;49.894;8.822;2024-03-02T23:01:37;8.70;99.90
20366;DHT22;10341;49.894;8.822;2024-03-02T23:06:56;8.60;99.90
20366;DHT22;10341;49.894;8.822;2024-03-02T23:12:16;8.60;99.90
20366;DHT22;10341;49.894;8.822;2024-03-02T23:17:36;8.50;99.90
20366;DHT22;10341;49.894;8.822;2024-03-02T23:22:56;8.30;99.90
20366;DHT22;10341;49.894;8.822;2024-03-02T23:28:15;8.20;99.90
20366;DHT22;10341;49.894;8.822;2024-03-02T23:33:35;8.10;99.90
20366;DHT22;10341;49.894;8.822;2024-03-02T23:38:53;8.00;99.90
20366;DHT22;10341;49.894;8.822;2024-03-02T23:44:13;8.30;99.90
20366;DHT22;10341;49.894;8.822;2024-03-02T23:49:33;8.40;99.90
20366;DHT22;10341;49.894;8.822;2024-03-02T23:54:52;8.50;99.90
